Time;durP1;ratioP1;P1;durP2;ratioP2;P2;SDS_P1;SDS_P2;PMS_P1;PMS_P2;Temp;Humidity;BMP_temperature;BMP_pressure;BME280_temperature;BME280_humidity;BME280_pressure;Samples;Min_cycle;Max_cycle;Signal;HPM_P1;HPM_P2
2022/07/19 00:00:46;;;;;;;;;;;;;;;13.38;83.31;100361.47;4937631;29;816;-64
2022/07/19 00:03:13;;;;;;;;;;;;;;;13.32;83.59;100366.66;4937490;29;854;-64
2022/07/19 00:05:40;;;;;;;;;;;;;;;13.25;83.86;100367.47;4937517;29;808;-64
2022/07/19 00:08:07;;;;;;;;;;;;;;;13.18;83.83;100358.41;4937551;29;1906;-64
2022/07/19 00:10:34;;;;;;;;;;;;;;;13.15;84.53;100359.22;4936120;29;1210;-64
2022/07/19 00:13:00;;;;;;;;;;;;;;;13.12;84.67;100363.63;4937449;29;894;-64
2022/07/19 00:15:27;;;;;;;;;;;;;;;13.12;85.43;100358.06;4937324;29;870;-64
2022/07/19 00:17:53;;;;;;;;;;;;;;;13.11;85.58;100353.69;4937174;29;871;-64
2022/07/19 00:20:21;;;;;;;;;;;;;;;13.08;85.79;100357.28;4937375;29;891;-64
2022/07/19 00:22:47;;;;;;;;;;;;;;;13.04;85.83;100350.97;4937415;29;863;-64
2022/07/19 00:25:14;;;;;;;;;;;;;;;13.02;85.89;100354.16;4937067;29;839;-64
2022/07/19 00:27:42;;;;;;;;;;;;;;;13.01;86.25;100354.53;4935751;29;1954;-64
2022/07/19 00:30:09;;;;;;;;;;;;;;;13.01;86.49;100352.56;4937042;29;859;-64
2022/07/19 00:32:36;;;;;;;;;;;;;;;13.03;86.72;100352.16;4939163;29;1419;-64
2022/07/19 00:35:02;;;;;;;;;;;;;;;13.03;86.95;100346.59;4956109;29;874;-64
2022/07/19 00:37:28;;;;;;;;;;;;;;;13.00;86.79;100347.44;4956026;29;871;-64
2022/07/19 00:39:55;;;;;;;;;;;;;;;12.96;87.37;100346.66;4956004;29;855;-64
2022/07/19 00:42:22;;;;;;;;;;;;;;;12.95;87.61;100343.09;4955979;28;835;-64
2022/07/19 00:44:49;;;;;;;;;;;;;;;12.97;87.41;100346.25;4955915;29;803;-64
2022/07/19 00:47:15;;;;;;;;;;;;;;;13.01;87.89;100351.78;4955734;28;1891;-64
2022/07/19 00:49:42;;;;;;;;;;;;;;;13.02;87.73;100345.03;4955835;29;832;-64
2022/07/19 00:52:09;;;;;;;;;;;;;;;13.10;88.03;100346.56;4955755;28;863;-64
2022/07/19 00:54:39;;;;;;;;;;;;;;;13.16;87.81;100342.16;4955769;29;851;-64
2022/07/19 00:57:06;;;;;;;;;;;;;;;13.23;87.81;100341.34;4938452;29;1292;-63
2022/07/19 00:59:34;;;;;;;;;;;;;;;13.28;87.54;100338.94;4955698;28;906;-64
2022/07/19 01:02:01;;;;;;;;;;;;;;;13.30;87.81;100335.75;4938397;29;832;-64
2022/07/19 01:04:28;;;;;;;;;;;;;;;13.31;87.51;100330.97;4955811;29;1018;-64
2022/07/19 01:06:54;;;;;;;;;;;;;;;13.31;87.70;100331.75;4955434;28;1948;-64
2022/07/19 01:09:21;;;;;;;;;;;;;;;13.32;87.96;100330.59;4955499;29;812;-64
2022/07/19 01:11:48;;;;;;;;;;;;;;;13.32;88.14;100327.03;4955399;28;847;-64
2022/07/19 01:14:15;;;;;;;;;;;;;;;13.32;87.97;100315.91;4938204;29;1194;-64
2022/07/19 01:16:48;;;;;;;;;;;;;;;13.33;88.07;100323.81;4955239;29;816;-64
2022/07/19 01:19:14;;;;;;;;;;;;;;;13.35;88.35;100315.88;4938062;29;1329;-64
2022/07/19 01:21:41;;;;;;;;;;;;;;;13.38;88.32;100317.06;4955246;29;784;-64
2022/07/19 01:24:08;;;;;;;;;;;;;;;13.36;88.01;100319.47;4955241;29;808;-64
2022/07/19 01:26:34;;;;;;;;;;;;;;;13.37;88.36;100309.91;4955024;28;1886;-64
2022/07/19 01:29:01;;;;;;;;;;;;;;;13.34;88.17;100313.53;4955156;29;799;-64
2022/07/19 01:31:28;;;;;;;;;;;;;;;13.30;88.50;100309.97;4955170;29;918;-64
2022/07/19 01:33:55;;;;;;;;;;;;;;;13.23;88.51;100314.34;4934498;29;1419;-64
2022/07/19 01:36:22;;;;;;;;;;;;;;;13.20;89.07;100309.59;4935882;29;855;-64
2022/07/19 01:38:51;;;;;;;;;;;;;;;13.22;89.13;100315.53;4935492;29;823;-64
2022/07/19 01:41:17;;;;;;;;;;;;;;;13.24;89.01;100315.13;4935727;29;859;-64
2022/07/19 01:43:44;;;;;;;;;;;;;;;13.22;88.88;100309.22;4935736;29;870;-64
2022/07/19 01:46:11;;;;;;;;;;;;;;;13.19;89.10;100313.59;4935578;29;832;-64
2022/07/19 01:48:38;;;;;;;;;;;;;;;13.21;89.23;100311.19;4935661;29;1968;-64
2022/07/19 01:51:04;;;;;;;;;;;;;;;13.23;89.12;100308.03;4935516;29;816;-64
2022/07/19 01:53:31;;;;;;;;;;;;;;;13.22;89.10;100303.66;4934626;29;1347;-64
2022/07/19 01:55:57;;;;;;;;;;;;;;;13.25;89.08;100305.63;4935469;29;858;-64
2022/07/19 01:58:24;;;;;;;;;;;;;;;13.28;88.83;100307.56;4935691;29;856;-64
2022/07/19 02:00:50;;;;;;;;;;;;;;;13.26;89.01;100298.88;4935402;29;815;-64
2022/07/19 02:03:18;;;;;;;;;;;;;;;13.23;88.94;100303.25;4935382;29;895;-64
2022/07/19 02:05:44;;;;;;;;;;;;;;;13.20;88.98;100303.28;4933987;29;1186;-64
2022/07/19 02:08:11;;;;;;;;;;;;;;;13.19;88.83;100310.03;4935332;29;1882;-64
2022/07/19 02:10:37;;;;;;;;;;;;;;;13.17;88.51;100306.88;4935204;29;855;-64
2022/07/19 02:13:04;;;;;;;;;;;;;;;13.04;88.89;100301.81;4935191;29;867;-64
2022/07/19 02:15:30;;;;;;;;;;;;;;;12.99;89.43;100307.78;4935182;29;811;-65
2022/07/19 02:17:57;;;;;;;;;;;;;;;12.99;89.27;100309.75;4934977;29;868;-64
2022/07/19 02:20:24;;;;;;;;;;;;;;;13.02;89.77;100314.50;4935246;29;850;-64
2022/07/19 02:22:51;;;;;;;;;;;;;;;13.08;89.83;100313.69;4934957;29;902;-64
2022/07/19 02:25:18;;;;;;;;;;;;;;;13.10;89.89;100315.25;4935004;29;831;-64
2022/07/19 02:27:45;;;;;;;;;;;;;;;13.15;89.86;100307.28;4934910;29;1886;-64
2022/07/19 02:30:12;;;;;;;;;;;;;;;13.13;89.80;100312.44;4933633;29;1167;-64
2022/07/19 02:32:39;;;;;;;;;;;;;;;13.10;90.09;100318.00;4937112;29;1124;-64
2022/07/19 02:35:07;;;;;;;;;;;;;;;13.07;90.09;100309.31;4953957;29;867;-64
2022/07/19 02:37:33;;;;;;;;;;;;;;;13.03;90.26;100321.63;4954103;28;863;-64
2022/07/19 02:40:00;;;;;;;;;;;;;;;13.01;90.04;100318.47;4936662;29;903;-64
2022/07/19 02:42:26;;;;;;;;;;;;;;;12.95;90.53;100317.31;4953810;28;812;-64
2022/07/19 02:44:53;;;;;;;;;;;;;;;12.91;90.27;100313.78;4953969;29;804;-64
2022/07/19 02:47:19;;;;;;;;;;;;;;;12.85;90.82;100318.97;4953609;29;1987;-64
2022/07/19 02:49:46;;;;;;;;;;;;;;;12.77;91.34;100318.22;4953750;28;796;-64
2022/07/19 02:52:12;;;;;;;;;;;;;;;12.73;91.80;100323.00;4952945;28;883;-64
2022/07/19 02:54:39;;;;;;;;;;;;;;;12.73;92.04;100317.44;4953693;29;899;-64
2022/07/19 02:57:05;;;;;;;;;;;;;;;12.76;92.10;100324.97;4953690;28;871;-65
2022/07/19 02:59:31;;;;;;;;;;;;;;;12.81;91.99;100323.75;4953609;29;855;-64
2022/07/19 03:01:58;;;;;;;;;;;;;;;12.85;91.87;100327.31;4953627;29;930;-65
2022/07/19 03:04:25;;;;;;;;;;;;;;;12.85;91.75;100325.31;4953536;28;820;-65
2022/07/19 03:06:51;;;;;;;;;;;;;;;12.84;91.75;100315.41;4953488;29;1948;-64
2022/07/19 03:09:19;;;;;;;;;;;;;;;12.84;92.16;100318.19;4953569;29;867;-64
2022/07/19 03:11:47;;;;;;;;;;;;;;;12.87;91.92;100313.81;4953474;28;906;-64
2022/07/19 03:14:13;;;;;;;;;;;;;;;12.86;91.88;100320.53;4953490;29;792;-64
2022/07/19 03:16:41;;;;;;;;;;;;;;;12.91;91.91;100322.09;4953418;29;812;-64
2022/07/19 03:19:08;;;;;;;;;;;;;;;12.95;92.19;100311.78;4936169;29;1293;-64
2022/07/19 03:21:34;;;;;;;;;;;;;;;13.01;91.92;100318.47;4953475;29;863;-64
2022/07/19 03:24:01;;;;;;;;;;;;;;;13.01;91.92;100324.03;4953446;29;891;-64
2022/07/19 03:26:28;;;;;;;;;;;;;;;13.03;92.04;100316.09;4953272;29;1914;-64
2022/07/19 03:28:54;;;;;;;;;;;;;;;13.06;92.23;100316.06;4953420;29;854;-64
2022/07/19 03:31:21;;;;;;;;;;;;;;;13.10;91.93;100321.59;4953340;29;953;-65
2022/07/19 03:33:47;;;;;;;;;;;;;;;13.16;91.93;100324.72;4953173;29;1196;-64
2022/07/19 03:36:14;;;;;;;;;;;;;;;13.24;91.77;100320.69;4953407;29;863;-64
2022/07/19 03:38:40;;;;;;;;;;;;;;;13.34;91.16;100319.84;4936237;29;1205;-64
2022/07/19 03:41:08;;;;;;;;;;;;;;;13.55;91.08;100330.00;4953540;29;871;-64
2022/07/19 03:43:36;;;;;;;;;;;;;;;13.79;90.12;100330.19;4953443;29;879;-64
2022/07/19 03:46:03;;;;;;;;;;;;;;;14.00;89.29;100331.97;4935860;29;1174;-64
2022/07/19 03:48:30;;;;;;;;;;;;;;;14.14;88.87;100328.22;4953178;29;1910;-64
2022/07/19 03:50:56;;;;;;;;;;;;;;;14.28;88.70;100328.06;4935980;29;1349;-64
2022/07/19 03:53:23;;;;;;;;;;;;;;;14.47;87.90;100330.22;4953306;29;827;-64
2022/07/19 03:55:49;;;;;;;;;;;;;;;15.07;85.76;100330.63;4953350;29;792;-63
2022/07/19 03:58:16;;;;;;;;;;;;;;;15.84;81.74;100325.41;4953319;28;883;-64
2022/07/19 04:00:45;;;;;;;;;;;;;;;16.40;78.82;100324.75;4953363;29;806;-63
2022/07/19 04:03:12;;;;;;;;;;;;;;;16.75;76.69;100328.78;4937815;29;1206;-63
2022/07/19 04:05:39;;;;;;;;;;;;;;;17.02;74.62;100327.81;4956663;29;883;-63
2022/07/19 04:08:06;;;;;;;;;;;;;;;17.27;72.93;100328.00;4956519;28;1891;-63
2022/07/19 04:10:33;;;;;;;;;;;;;;;17.50;71.14;100323.47;4956567;29;886;-63
2022/07/19 04:13:00;;;;;;;;;;;;;;;17.70;69.98;100329.72;4956498;28;863;-64
2022/07/19 04:15:27;;;;;;;;;;;;;;;17.87;69.22;100329.75;4956360;29;855;-63
2022/07/19 04:17:54;;;;;;;;;;;;;;;17.99;68.64;100334.63;4939258;29;1312;-63
2022/07/19 04:20:21;;;;;;;;;;;;;;;18.13;67.61;100339.03;4939071;29;1210;-63
2022/07/19 04:22:48;;;;;;;;;;;;;;;18.28;67.41;100331.03;4956457;29;854;-63
2022/07/19 04:25:14;;;;;;;;;;;;;;;18.40;66.64;100340.69;4956384;29;840;-63
2022/07/19 04:27:41;;;;;;;;;;;;;;;18.51;65.92;100339.16;4956272;28;1894;-63
2022/07/19 04:42:50;;;;;;;;;;;;;;;19.12;63.84;100340.16;4952171;29;1199;-63
2022/07/19 04:45:17;;;;;;;;;;;;;;;19.25;62.61;100342.16;4955823;29;871;-63
2022/07/19 04:47:43;;;;;;;;;;;;;;;19.41;62.40;100342.03;4955826;28;1902;-62
2022/07/19 04:50:10;;;;;;;;;;;;;;;19.53;61.78;100343.25;4955892;29;863;-62
2022/07/19 04:52:36;;;;;;;;;;;;;;;19.67;61.84;100350.38;4955869;29;967;-62
2022/07/19 04:55:04;;;;;;;;;;;;;;;19.77;60.77;100347.25;4955768;29;823;-63
2022/07/19 04:57:35;;;;;;;;;;;;;;;19.91;60.32;100348.00;4955801;28;820;-62
2022/07/19 05:00:01;;;;;;;;;;;;;;;20.00;59.80;100339.66;4955697;29;879;-62
2022/07/19 05:02:28;;;;;;;;;;;;;;;20.11;58.98;100345.69;4955843;29;871;-62
2022/07/19 05:04:55;;;;;;;;;;;;;;;20.20;58.90;100347.78;4938351;29;1272;-62
2022/07/19 05:07:22;;;;;;;;;;;;;;;20.32;58.65;100340.53;4955463;29;1882;-62
2022/07/19 05:09:49;;;;;;;;;;;;;;;20.44;57.89;100345.31;4955557;28;835;-62
2022/07/19 05:12:15;;;;;;;;;;;;;;;20.60;57.41;100342.31;4955520;29;824;-62
2022/07/19 05:14:41;;;;;;;;;;;;;;;20.79;57.53;100340.38;4954628;28;858;-62
2022/07/19 05:17:08;;;;;;;;;;;;;;;21.01;56.99;100345.94;4955340;28;887;-62
2022/07/19 05:19:35;;;;;;;;;;;;;;;21.09;55.79;100346.47;4955425;29;795;-62
2022/07/19 05:22:02;;;;;;;;;;;;;;;21.19;55.67;100348.06;4955242;28;819;-61
2022/07/19 05:24:29;;;;;;;;;;;;;;;21.40;54.63;100348.44;4955293;29;808;-61
2022/07/19 05:26:55;;;;;;;;;;;;;;;21.48;53.86;100348.94;4955111;28;1944;-62
2022/07/19 05:29:22;;;;;;;;;;;;;;;21.53;54.18;100351.16;4955164;29;808;-61
2022/07/19 05:31:49;;;;;;;;;;;;;;;21.65;53.92;100344.63;4955289;29;962;-62
2022/07/19 05:34:16;;;;;;;;;;;;;;;21.74;53.12;100349.47;4955145;29;796;-61
2022/07/19 05:36:43;;;;;;;;;;;;;;;21.79;53.23;100352.44;4954942;29;800;-61
2022/07/19 05:39:10;;;;;;;;;;;;;;;21.90;52.61;100345.59;4954976;29;835;-62
2022/07/19 05:41:37;;;;;;;;;;;;;;;22.09;52.57;100347.16;4954767;29;1255;-61
2022/07/19 05:44:04;;;;;;;;;;;;;;;22.31;51.12;100347.00;4954815;29;871;-61
2022/07/19 05:46:32;;;;;;;;;;;;;;;22.61;50.05;100345.22;4954806;29;886;-61
2022/07/19 05:48:58;;;;;;;;;;;;;;;22.93;48.83;100345.78;4954787;29;835;-61
2022/07/19 05:51:24;;;;;;;;;;;;;;;23.25;48.35;100346.28;4954724;29;862;-61
2022/07/19 05:53:53;;;;;;;;;;;;;;;23.51;47.43;100351.47;4954717;29;839;-61
2022/07/19 05:56:20;;;;;;;;;;;;;;;24.05;46.36;100346.75;4954705;29;851;-61
2022/07/19 05:58:47;;;;;;;;;;;;;;;25.01;44.11;100349.25;4954534;28;855;-61
2022/07/19 06:01:19;;;;;;;;;;;;;;;25.91;42.11;100352.63;4954579;29;847;-61
2022/07/19 06:03:47;;;;;;;;;;;;;;;26.59;40.26;100347.72;4954450;29;828;-61
2022/07/19 06:06:15;;;;;;;;;;;;;;;27.30;38.62;100348.03;4954449;28;796;-61
2022/07/19 06:08:42;;;;;;;;;;;;;;;28.02;37.07;100349.69;4954337;29;1890;-61
2022/07/19 06:11:08;;;;;;;;;;;;;;;28.43;35.70;100348.50;4937180;29;1324;-61
2022/07/19 06:13:35;;;;;;;;;;;;;;;28.69;35.87;100348.28;4954216;28;788;-61
2022/07/19 06:16:02;;;;;;;;;;;;;;;29.37;35.05;100354.72;4954263;29;824;-61
2022/07/19 06:18:34;;;;;;;;;;;;;;;30.06;33.87;100356.06;4954299;29;820;-61
2022/07/19 06:21:01;;;;;;;;;;;;;;;30.58;33.49;100348.75;4954200;29;886;-61
2022/07/19 06:23:27;;;;;;;;;;;;;;;30.38;33.26;100352.78;4954150;28;812;-61
2022/07/19 06:25:54;;;;;;;;;;;;;;;30.64;33.21;100346.63;4953999;28;859;-61
2022/07/19 06:28:21;;;;;;;;;;;;;;;31.22;32.15;100348.50;4954042;29;1890;-61
2022/07/19 06:30:48;;;;;;;;;;;;;;;31.44;31.53;100353.22;4936781;29;1293;-61
2022/07/19 06:33:14;;;;;;;;;;;;;;;31.68;30.66;100358.13;4953964;28;800;-61
2022/07/19 06:35:41;;;;;;;;;;;;;;;31.14;30.82;100357.63;4953941;29;800;-61
2022/07/19 06:38:08;;;;;;;;;;;;;;;31.44;30.87;100365.41;4954010;29;871;-61
2022/07/19 06:40:35;;;;;;;;;;;;;;;32.27;30.14;100353.50;4953850;29;842;-61
2022/07/19 06:43:01;;;;;;;;;;;;;;;32.58;29.34;100356.19;4953648;29;1247;-61
2022/07/19 06:45:28;;;;;;;;;;;;;;;33.11;29.15;100356.34;4953744;28;859;-61
2022/07/19 06:47:55;;;;;;;;;;;;;;;33.30;29.09;100356.28;4953759;29;1914;-61
2022/07/19 06:50:22;;;;;;;;;;;;;;;33.43;27.72;100347.69;4953693;29;860;-61
2022/07/19 06:52:48;;;;;;;;;;;;;;;33.49;27.29;100356.16;4953763;29;812;-61
2022/07/19 06:55:15;;;;;;;;;;;;;;;33.62;26.94;100356.19;4953672;28;801;-61
2022/07/19 06:57:41;;;;;;;;;;;;;;;33.64;27.17;100361.38;4936401;29;1293;-62
2022/07/19 07:00:09;;;;;;;;;;;;;;;33.89;27.05;100354.06;4953652;28;867;-62
2022/07/19 07:02:38;;;;;;;;;;;;;;;33.44;27.17;100345.59;4953577;29;843;-61
2022/07/19 07:05:06;;;;;;;;;;;;;;;33.37;27.77;100352.75;4953615;28;851;-62
2022/07/19 07:07:33;;;;;;;;;;;;;;;34.15;26.67;100355.38;4953508;29;1938;-62
2022/07/19 07:10:02;;;;;;;;;;;;;;;34.40;25.38;100355.84;4953578;29;875;-62
2022/07/19 07:12:30;;;;;;;;;;;;;;;34.36;24.05;100355.41;4953369;29;812;-62
2022/07/19 07:14:56;;;;;;;;;;;;;;;33.97;24.40;100357.03;4954035;29;756;-62
2022/07/19 07:17:23;;;;;;;;;;;;;;;33.95;24.14;100353.97;4953471;29;823;-62
2022/07/19 07:19:50;;;;;;;;;;;;;;;33.97;24.23;100362.78;4953423;28;796;-62
2022/07/19 07:22:16;;;;;;;;;;;;;;;33.85;24.36;100359.38;4953484;29;882;-62
2022/07/19 07:24:43;;;;;;;;;;;;;;;33.94;23.86;100352.41;4936199;29;1214;-62
2022/07/19 07:27:10;;;;;;;;;;;;;;;33.90;23.81;100349.88;4953499;28;1949;-62
2022/07/19 07:29:37;;;;;;;;;;;;;;;34.34;23.83;100360.94;4953319;29;795;-62
2022/07/19 07:32:04;;;;;;;;;;;;;;;34.51;23.65;100358.44;4953727;29;920;-62
2022/07/19 07:34:31;;;;;;;;;;;;;;;34.36;23.11;100350.44;4953250;28;827;-63
2022/07/19 07:36:58;;;;;;;;;;;;;;;34.02;23.76;100359.00;4953518;28;859;-62
2022/07/19 07:39:24;;;;;;;;;;;;;;;34.22;23.12;100376.84;4957260;29;874;-62
2022/07/19 07:41:51;;;;;;;;;;;;;;;33.64;22.43;100358.50;4936353;29;1305;-62
2022/07/19 07:44:18;;;;;;;;;;;;;;;33.11;22.83;100359.97;4937926;29;804;-62
2022/07/19 07:46:45;;;;;;;;;;;;;;;33.26;23.92;100362.31;4937807;29;1918;-63
2022/07/19 07:49:11;;;;;;;;;;;;;;;33.43;23.52;100372.69;4937726;29;859;-62
2022/07/19 07:51:37;;;;;;;;;;;;;;;33.92;23.16;100366.53;4937806;29;922;-62
2022/07/19 07:54:04;;;;;;;;;;;;;;;34.12;22.39;100362.22;4937755;29;862;-62
2022/07/19 07:56:30;;;;;;;;;;;;;;;33.41;22.54;100364.63;4937633;29;832;-62
2022/07/19 07:58:57;;;;;;;;;;;;;;;33.16;23.44;100366.94;4936427;29;828;-63
2022/07/19 08:01:24;;;;;;;;;;;;;;;33.33;23.77;100352.31;4937559;29;890;-62
2022/07/19 08:03:50;;;;;;;;;;;;;;;33.72;23.31;100365.88;4937559;29;857;-62
2022/07/19 08:06:17;;;;;;;;;;;;;;;33.58;23.73;100349.22;4937550;29;808;-62
2022/07/19 08:08:44;;;;;;;;;;;;;;;34.12;24.11;100342.16;4937437;29;1890;-63
2022/07/19 08:11:11;;;;;;;;;;;;;;;34.43;23.58;100353.94;4937391;29;866;-62
2022/07/19 08:13:38;;;;;;;;;;;;;;;34.48;23.32;100347.28;4937421;29;835;-61
2022/07/19 08:16:06;;;;;;;;;;;;;;;34.66;23.26;100343.50;4937343;29;867;-62
2022/07/19 08:18:32;;;;;;;;;;;;;;;34.44;22.43;100350.53;4937326;29;852;-62
2022/07/19 08:20:59;;;;;;;;;;;;;;;34.05;22.69;100357.13;4937302;29;808;-62
2022/07/19 08:23:26;;;;;;;;;;;;;;;33.82;23.79;100354.75;4937210;29;808;-62
2022/07/19 08:25:53;;;;;;;;;;;;;;;33.93;23.75;100353.75;4937208;29;871;-62
2022/07/19 08:28:20;;;;;;;;;;;;;;;34.65;23.00;100356.28;4937063;29;1952;-62
2022/07/19 08:30:46;;;;;;;;;;;;;;;34.95;22.75;100341.47;4937096;29;851;-62
2022/07/19 08:33:13;;;;;;;;;;;;;;;34.87;22.57;100349.25;4937493;29;1050;-62
2022/07/19 08:35:40;;;;;;;;;;;;;;;34.39;22.74;100342.03;4937199;29;867;-62
2022/07/19 08:38:06;;;;;;;;;;;;;;;34.88;22.95;100341.38;4937009;29;828;-63
2022/07/19 08:40:34;;;;;;;;;;;;;;;34.63;22.79;100347.50;4936786;29;827;-62
2022/07/19 08:43:04;;;;;;;;;;;;;;;34.08;22.14;100353.94;4954065;29;1262;-62
2022/07/19 08:45:30;;;;;;;;;;;;;;;34.18;23.00;100342.78;4956076;28;851;-63
2022/07/19 08:47:57;;;;;;;;;;;;;;;34.05;22.86;100345.66;4955977;28;1910;-62
2022/07/19 08:50:25;;;;;;;;;;;;;;;33.83;22.30;100324.75;4955062;29;875;-62
2022/07/19 08:52:52;;;;;;;;;;;;;;;33.77;22.47;100341.28;4955745;28;870;-62
2022/07/19 08:55:18;;;;;;;;;;;;;;;33.46;22.94;100340.88;4955819;29;871;-62
2022/07/19 08:57:57;;;;;;;;;;;;;;;33.01;22.21;100333.09;4955758;29;890;-62
2022/07/19 09:00:31;;;;;;;;;;;;;;;32.49;22.77;100345.88;4955820;29;820;-62
2022/07/19 09:03:02;;;;;;;;;;;;;;;32.66;23.46;100331.34;4955661;29;834;-62
2022/07/19 09:05:28;;;;;;;;;;;;;;;32.60;22.55;100340.00;4955598;28;828;-63
2022/07/19 09:08:07;;;;;;;;;;;;;;;32.75;23.31;100340.28;4938264;29;1886;-62
2022/07/19 09:10:34;;;;;;;;;;;;;;;32.65;24.00;100335.53;4955464;28;816;-62
2022/07/19 09:13:03;;;;;;;;;;;;;;;32.52;24.26;100339.09;4955659;29;832;-61
2022/07/19 09:15:59;;;;;;;;;;;;;;;32.33;24.21;100328.44;4955588;29;816;-63
2022/07/19 09:18:30;;;;;;;;;;;;;;;32.32;24.01;100326.13;4938944;29;1279;-63
2022/07/19 09:20:58;;;;;;;;;;;;;;;32.19;24.21;100331.78;4955313;29;804;-62
2022/07/19 09:23:25;;;;;;;;;;;;;;;32.00;24.15;100326.06;4955557;29;1042;-63
2022/07/19 09:25:52;;;;;;;;;;;;;;;32.31;24.67;100328.22;4955483;28;833;-62
2022/07/19 09:28:32;;;;;;;;;;;;;;;32.37;24.42;100325.28;4955471;29;1891;-62
2022/07/19 09:30:59;;;;;;;;;;;;;;;32.21;23.96;100312.00;4955119;29;925;-63
2022/07/19 09:33:27;;;;;;;;;;;;;;;32.13;24.45;100314.69;4955068;28;851;-62
2022/07/19 09:36:01;;;;;;;;;;;;;;;32.34;24.85;100314.91;4955049;29;871;-63
2022/07/19 09:38:30;;;;;;;;;;;;;;;30.40;25.34;100315.97;4955190;28;832;-63
2022/07/19 09:41:20;;;;;;;;;;;;;;;28.85;27.93;100333.31;4954721;28;1173;-63
2022/07/19 09:43:53;;;;;;;;;;;;;;;27.78;29.40;100338.72;4944964;29;1038;-63
2022/07/19 09:46:28;;;;;;;;;;;;;;;27.81;30.11;100326.34;4954907;29;918;-62
2022/07/19 09:49:02;;;;;;;;;;;;;;;28.75;29.41;100329.16;4954693;28;1902;-62
2022/07/19 09:51:29;;;;;;;;;;;;;;;28.46;29.10;100330.41;4954789;29;791;-63
2022/07/19 09:53:57;;;;;;;;;;;;;;;28.74;28.77;100332.50;4954760;29;847;-62
2022/07/19 09:56:24;;;;;;;;;;;;;;;28.59;28.91;100327.88;4954694;29;879;-62
2022/07/19 09:58:52;;;;;;;;;;;;;;;28.88;28.85;100317.25;4937460;29;1332;-63
2022/07/19 10:01:19;;;;;;;;;;;;;;;29.76;28.63;100310.34;4954291;28;890;-62
2022/07/19 10:32:15;;;;;;;;;;;;;;;29.50;28.96;100297.22;5781235;23;1670;-64
2022/07/19 10:34:42;;;;;;;;;;;;;;;29.61;28.81;100285.78;4968897;28;873;-64
2022/07/19 10:37:08;;;;;;;;;;;;;;;29.11;29.65;100298.88;4936829;29;1308;-64
2022/07/19 10:39:35;;;;;;;;;;;;;;;29.65;29.08;100285.53;4954233;29;897;-64
2022/07/19 10:42:09;;;;;;;;;;;;;;;30.36;28.59;100273.47;4953855;29;1164;-64
2022/07/19 10:45:02;;;;;;;;;;;;;;;31.17;28.06;100286.50;4953919;29;822;-63
2022/07/19 10:47:36;;;;;;;;;;;;;;;30.85;28.66;100270.72;4942331;29;1915;-64
2022/07/19 10:50:03;;;;;;;;;;;;;;;30.06;28.37;100287.66;4953916;29;992;-64
2022/07/19 10:52:29;;;;;;;;;;;;;;;30.11;27.56;100276.22;4954743;29;847;-63
2022/07/19 10:55:15;;;;;;;;;;;;;;;30.31;26.76;100277.91;4953757;29;819;-63
2022/07/19 10:57:41;;;;;;;;;;;;;;;30.81;26.77;100269.47;4953765;29;818;-63
2022/07/19 11:00:28;;;;;;;;;;;;;;;31.37;26.33;100260.34;4953714;29;894;-65
2022/07/19 11:03:13;;;;;;;;;;;;;;;32.08;26.67;100262.00;4953374;29;1179;-64
2022/07/19 11:06:06;;;;;;;;;;;;;;;32.37;26.02;100270.16;4953674;29;823;-64
2022/07/19 11:08:37;;;;;;;;;;;;;;;31.55;26.73;100261.69;4950133;29;1968;-64
2022/07/19 11:11:28;;;;;;;;;;;;;;;30.46;27.59;100257.59;4954278;28;834;-65
2022/07/19 11:13:57;;;;;;;;;;;;;;;29.23;28.85;100253.31;4953234;29;854;-64
2022/07/19 11:16:37;;;;;;;;;;;;;;;29.74;28.70;100251.06;4953786;29;913;-65
2022/07/19 11:19:04;;;;;;;;;;;;;;;30.36;28.27;100247.03;4953790;29;764;-64
2022/07/19 11:21:32;;;;;;;;;;;;;;;30.31;28.52;100246.56;4953450;29;807;-64
2022/07/19 11:24:00;;;;;;;;;;;;;;;30.06;28.94;100242.81;4953442;29;830;-65
2022/07/19 11:26:34;;;;;;;;;;;;;;;29.11;29.72;100256.19;4953563;29;784;-64
2022/07/19 11:29:01;;;;;;;;;;;;;;;29.77;28.86;100249.25;4951906;29;1948;-64
2022/07/19 11:31:28;;;;;;;;;;;;;;;31.23;27.48;100235.84;4953387;29;997;-64
2022/07/19 11:33:58;;;;;;;;;;;;;;;32.52;26.28;100233.25;4953279;29;1197;-64
2022/07/19 11:36:26;;;;;;;;;;;;;;;33.43;25.50;100235.94;4953399;29;857;-64
2022/07/19 11:38:55;;;;;;;;;;;;;;;32.44;26.29;100235.19;4953302;29;856;-64
2022/07/19 11:41:23;;;;;;;;;;;;;;;31.26;27.24;100235.53;4953368;29;788;-64
2022/07/19 11:43:53;;;;;;;;;;;;;;;30.91;27.12;100237.22;4953317;29;851;-65
2022/07/19 11:46:21;;;;;;;;;;;;;;;32.09;27.08;100231.31;4953247;29;874;-64
2022/07/19 11:48:48;;;;;;;;;;;;;;;33.41;24.71;100227.13;4953213;29;1978;-65
2022/07/19 11:51:14;;;;;;;;;;;;;;;33.67;24.42;100231.31;4953227;29;811;-64
2022/07/19 11:53:42;;;;;;;;;;;;;;;34.38;24.33;100235.13;4953193;29;831;-64
2022/07/19 11:56:19;;;;;;;;;;;;;;;35.08;23.43;100219.19;4953140;29;832;-63
2022/07/19 11:58:44;;;;;;;;;;;;;;;35.56;22.46;100220.41;4953200;29;874;-64
2022/07/19 12:01:11;;;;;;;;;;;;;;;35.41;22.50;100223.22;4953028;29;835;-64
2022/07/19 12:03:38;;;;;;;;;;;;;;;35.51;22.05;100220.59;4953242;29;799;-63
2022/07/19 12:06:06;;;;;;;;;;;;;;;35.75;22.14;100216.47;4953288;29;870;-63
2022/07/19 12:08:49;;;;;;;;;;;;;;;36.72;21.30;100212.78;4953010;29;1947;-63
2022/07/19 12:11:24;;;;;;;;;;;;;;;37.36;21.02;100216.47;4953393;29;850;-63
2022/07/19 12:13:54;;;;;;;;;;;;;;;35.50;22.35;100210.41;4953028;29;870;-61
2022/07/19 12:16:21;;;;;;;;;;;;;;;33.34;24.03;100222.09;4953034;29;922;-64
2022/07/19 12:18:56;;;;;;;;;;;;;;;31.80;25.57;100225.25;4953032;29;925;-64
2022/07/19 12:21:36;;;;;;;;;;;;;;;31.11;27.24;100218.06;4952972;29;869;-64
2022/07/19 12:24:13;;;;;;;;;;;;;;;31.38;27.38;100212.56;4954705;28;791;-64
2022/07/19 12:26:41;;;;;;;;;;;;;;;31.27;26.85;100216.31;4956820;29;870;-64
2022/07/19 12:29:27;;;;;;;;;;;;;;;31.08;27.13;100199.94;4956532;29;1875;-63
2022/07/19 12:31:57;;;;;;;;;;;;;;;31.76;26.73;100210.50;4956374;29;918;-64
2022/07/19 12:34:24;;;;;;;;;;;;;;;31.52;26.45;100203.56;4956066;29;1361;-65
2022/07/19 12:36:50;;;;;;;;;;;;;;;31.30;26.37;100206.66;4956207;29;885;-64
2022/07/19 12:39:18;;;;;;;;;;;;;;;31.69;27.01;100205.41;4956317;29;913;-64
2022/07/19 12:41:58;;;;;;;;;;;;;;;31.56;27.04;100200.41;4956159;29;842;-64
2022/07/19 12:44:25;;;;;;;;;;;;;;;31.10;27.77;100205.88;4956070;29;862;-64
2022/07/19 12:46:52;;;;;;;;;;;;;;;30.70;28.57;100199.81;4955940;29;1915;-64
2022/07/19 12:49:19;;;;;;;;;;;;;;;31.82;27.74;100194.03;4956011;29;851;-65
2022/07/19 12:51:45;;;;;;;;;;;;;;;33.30;25.24;100193.00;4956005;29;831;-64
2022/07/19 12:54:12;;;;;;;;;;;;;;;34.49;24.33;100183.19;4956063;29;847;-65
2022/07/19 12:56:39;;;;;;;;;;;;;;;35.65;22.69;100181.75;4955766;29;819;-64
2022/07/19 13:01:51;;;;;;;;;;;;;;;37.69;20.20;100181.16;4955820;29;684;-64
2022/07/19 13:04:18;;;;;;;;;;;;;;;37.99;20.22;100183.81;4955723;29;854;-62
2022/07/19 13:06:44;;;;;;;;;;;;;;;36.73;20.48;100176.84;4955703;29;851;-65
2022/07/19 13:09:11;;;;;;;;;;;;;;;34.67;22.58;100172.81;4955657;29;1970;-65
2022/07/19 13:11:38;;;;;;;;;;;;;;;32.91;24.26;100178.16;4955828;29;823;-64
2022/07/19 13:14:05;;;;;;;;;;;;;;;31.81;25.70;100175.34;4955520;29;887;-64
2022/07/19 13:16:32;;;;;;;;;;;;;;;31.74;26.46;100173.13;4955489;29;886;-64
2022/07/19 13:18:59;;;;;;;;;;;;;;;33.13;24.65;100174.09;4955412;29;832;-64
2022/07/19 13:21:27;;;;;;;;;;;;;;;34.67;23.56;100166.31;4955417;29;831;-65
2022/07/19 13:23:53;;;;;;;;;;;;;;;35.91;22.10;100172.03;4955307;29;870;-62
2022/07/19 13:26:19;;;;;;;;;;;;;;;36.53;21.58;100172.84;4938177;29;804;-62
2022/07/19 13:28:46;;;;;;;;;;;;;;;35.63;21.78;100172.13;4955199;29;1949;-65
2022/07/19 13:31:12;;;;;;;;;;;;;;;33.30;23.55;100165.13;4955150;29;986;-64
2022/07/19 13:33:39;;;;;;;;;;;;;;;33.71;23.43;100168.69;4954963;29;1249;-65
2022/07/19 13:36:06;;;;;;;;;;;;;;;34.36;23.11;100160.34;4954457;28;823;-64
2022/07/19 13:38:32;;;;;;;;;;;;;;;35.17;21.94;100164.91;4955091;29;979;-64
2022/07/19 13:40:58;;;;;;;;;;;;;;;35.98;21.28;100156.91;4937840;29;1257;-65
2022/07/19 13:43:24;;;;;;;;;;;;;;;36.23;21.42;100155.59;4954977;29;879;-62